sensor_id;sensor_type;location;lat;lon;timestamp;temperature;humidity
83553;DHT22;73510;50.866;5.420;2024-03-02T00:02:19;11.20;57.80
83553;DHT22;73510;50.866;5.420;2024-03-02T00:04:45;11.20;58.60
83553;DHT22;73510;50.866;5.420;2024-03-02T00:07:14;11.10;58.60
83553;DHT22;73510;50.866;5.420;2024-03-02T00:09:40;11.10;59.00
83553;DHT22;73510;50.866;5.420;2024-03-02T00:12:06;11.10;59.20
83553;DHT22;73510;50.866;5.420;2024-03-02T00:14:32;11.00;59.70
83553;DHT22;73510;50.866;5.420;2024-03-02T00:16:59;11.00;60.70
83553;DHT22;73510;50.866;5.420;2024-03-02T00:19:24;10.90;62.10
83553;DHT22;73510;50.866;5.420;2024-03-02T00:21:50;10.80;63.40
83553;DHT22;73510;50.866;5.420;2024-03-02T00:24:33;10.70;63.50
83553;DHT22;73510;50.866;5.420;2024-03-02T00:27:01;10.50;64.00
83553;DHT22;73510;50.866;5.420;2024-03-02T00:29:28;10.40;64.80
83553;DHT22;73510;50.866;5.420;2024-03-02T00:31:55;10.40;65.20
83553;DHT22;73510;50.866;5.420;2024-03-02T00:34:21;10.30;65.70
83553;DHT22;73510;50.866;5.420;2024-03-02T00:36:47;10.20;65.00
83553;DHT22;73510;50.866;5.420;2024-03-02T00:39:15;10.10;65.60
83553;DHT22;73510;50.866;5.420;2024-03-02T00:41:42;10.10;65.20
83553;DHT22;73510;50.866;5.420;2024-03-02T00:44:11;10.00;65.00
83553;DHT22;73510;50.866;5.420;2024-03-02T00:46:39;10.00;64.80
83553;DHT22;73510;50.866;5.420;2024-03-02T00:51:37;9.80;64.50
83553;DHT22;73510;50.866;5.420;2024-03-02T00:54:08;9.70;64.50
83553;DHT22;73510;50.866;5.420;2024-03-02T00:56:34;9.70;64.80
83553;DHT22;73510;50.866;5.420;2024-03-02T00:59:00;9.70;64.80
83553;DHT22;73510;50.866;5.420;2024-03-02T01:01:26;9.60;64.80
83553;DHT22;73510;50.866;5.420;2024-03-02T01:03:52;9.60;64.70
83553;DHT22;73510;50.866;5.420;2024-03-02T01:06:18;9.60;64.80
83553;DHT22;73510;50.866;5.420;2024-03-02T01:08:45;9.60;65.00
83553;DHT22;73510;50.866;5.420;2024-03-02T01:11:11;9.60;64.90
83553;DHT22;73510;50.866;5.420;2024-03-02T01:13:37;9.60;64.70
83553;DHT22;73510;50.866;5.420;2024-03-02T01:16:03;9.60;64.50
83553;DHT22;73510;50.866;5.420;2024-03-02T01:18:29;9.60;65.00
83553;DHT22;73510;50.866;5.420;2024-03-02T01:20:56;9.60;64.70
83553;DHT22;73510;50.866;5.420;2024-03-02T01:23:23;9.60;64.70
83553;DHT22;73510;50.866;5.420;2024-03-02T01:25:49;9.60;64.60
83553;DHT22;73510;50.866;5.420;2024-03-02T01:28:16;9.60;65.50
83553;DHT22;73510;50.866;5.420;2024-03-02T01:30:42;9.60;64.30
83553;DHT22;73510;50.866;5.420;2024-03-02T01:33:07;9.60;64.40
83553;DHT22;73510;50.866;5.420;2024-03-02T01:35:33;9.60;64.50
83553;DHT22;73510;50.866;5.420;2024-03-02T01:38:00;9.50;64.30
83553;DHT22;73510;50.866;5.420;2024-03-02T01:40:26;9.50;64.20
83553;DHT22;73510;50.866;5.420;2024-03-02T01:42:52;9.50;64.60
83553;DHT22;73510;50.866;5.420;2024-03-02T01:45:23;9.50;64.80
83553;DHT22;73510;50.866;5.420;2024-03-02T01:47:49;9.50;64.30
83553;DHT22;73510;50.866;5.420;2024-03-02T01:50:16;9.40;64.30
83553;DHT22;73510;50.866;5.420;2024-03-02T01:52:41;9.40;64.20
83553;DHT22;73510;50.866;5.420;2024-03-02T01:55:09;9.40;64.50
83553;DHT22;73510;50.866;5.420;2024-03-02T01:57:35;9.40;64.30
83553;DHT22;73510;50.866;5.420;2024-03-02T02:00:00;9.30;64.60
83553;DHT22;73510;50.866;5.420;2024-03-02T02:02:26;9.20;64.40
83553;DHT22;73510;50.866;5.420;2024-03-02T02:04:53;9.20;64.20
83553;DHT22;73510;50.866;5.420;2024-03-02T02:07:19;9.20;64.50
83553;DHT22;73510;50.866;5.420;2024-03-02T02:09:44;9.20;64.10
83553;DHT22;73510;50.866;5.420;2024-03-02T02:12:10;9.20;64.20
83553;DHT22;73510;50.866;5.420;2024-03-02T02:14:37;9.20;64.00
83553;DHT22;73510;50.866;5.420;2024-03-02T02:17:02;9.20;64.00
83553;DHT22;73510;50.866;5.420;2024-03-02T02:19:28;9.20;64.10
83553;DHT22;73510;50.866;5.420;2024-03-02T02:21:55;9.20;64.10
83553;DHT22;73510;50.866;5.420;2024-03-02T02:24:20;9.20;64.10
83553;DHT22;73510;50.866;5.420;2024-03-02T02:26:46;9.20;64.80
83553;DHT22;73510;50.866;5.420;2024-03-02T02:29:12;9.10;64.20
83553;DHT22;73510;50.866;5.420;2024-03-02T02:31:39;9.10;64.00
83553;DHT22;73510;50.866;5.420;2024-03-02T02:34:05;9.10;63.50
83553;DHT22;73510;50.866;5.420;2024-03-02T02:36:36;9.10;63.70
83553;DHT22;73510;50.866;5.420;2024-03-02T02:39:03;9.00;63.90
83553;DHT22;73510;50.866;5.420;2024-03-02T02:41:30;9.00;64.00
83553;DHT22;73510;50.866;5.420;2024-03-02T02:43:56;9.00;64.00
83553;DHT22;73510;50.866;5.420;2024-03-02T02:46:23;9.00;64.00
83553;DHT22;73510;50.866;5.420;2024-03-02T02:48:49;9.00;63.90
83553;DHT22;73510;50.866;5.420;2024-03-02T02:51:16;9.00;63.80
83553;DHT22;73510;50.866;5.420;2024-03-02T02:53:42;9.00;63.70
83553;DHT22;73510;50.866;5.420;2024-03-02T02:56:08;9.00;63.80
83553;DHT22;73510;50.866;5.420;2024-03-02T02:58:34;9.00;63.90
83553;DHT22;73510;50.866;5.420;2024-03-02T03:00:59;9.00;64.10
83553;DHT22;73510;50.866;5.420;2024-03-02T03:03:25;9.00;64.20
83553;DHT22;73510;50.866;5.420;2024-03-02T03:05:51;9.00;64.00
83553;DHT22;73510;50.866;5.420;2024-03-02T03:08:17;9.00;64.00
83553;DHT22;73510;50.866;5.420;2024-03-02T03:10:43;9.00;64.00
83553;DHT22;73510;50.866;5.420;2024-03-02T03:13:09;8.90;64.20
83553;DHT22;73510;50.866;5.420;2024-03-02T03:15:35;9.00;63.80
83553;DHT22;73510;50.866;5.420;2024-03-02T03:18:02;9.00;63.70
83553;DHT22;73510;50.866;5.420;2024-03-02T03:20:29;8.90;63.60
83553;DHT22;73510;50.866;5.420;2024-03-02T03:22:55;8.90;63.50
83553;DHT22;73510;50.866;5.420;2024-03-02T03:25:22;8.90;63.50
83553;DHT22;73510;50.866;5.420;2024-03-02T03:27:47;8.90;63.50
83553;DHT22;73510;50.866;5.420;2024-03-02T03:30:13;8.90;63.60
83553;DHT22;73510;50.866;5.420;2024-03-02T03:32:39;8.90;63.60
83553;DHT22;73510;50.866;5.420;2024-03-02T03:35:05;8.90;63.60
83553;DHT22;73510;50.866;5.420;2024-03-02T03:37:32;8.90;63.60
83553;DHT22;73510;50.866;5.420;2024-03-02T03:40:04;8.90;63.70
83553;DHT22;73510;50.866;5.420;2024-03-02T03:42:38;8.90;63.70
83553;DHT22;73510;50.866;5.420;2024-03-02T03:45:07;8.90;63.50
83553;DHT22;73510;50.866;5.420;2024-03-02T03:47:34;8.90;63.70
83553;DHT22;73510;50.866;5.420;2024-03-02T03:50:00;8.80;63.70
83553;DHT22;73510;50.866;5.420;2024-03-02T03:52:25;8.80;63.80
83553;DHT22;73510;50.866;5.420;2024-03-02T03:54:51;8.80;63.70
83553;DHT22;73510;50.866;5.420;2024-03-02T03:57:17;8.80;63.70
83553;DHT22;73510;50.866;5.420;2024-03-02T03:59:43;8.80;63.80
83553;DHT22;73510;50.866;5.420;2024-03-02T04:02:09;8.80;63.70
83553;DHT22;73510;50.866;5.420;2024-03-02T04:04:37;8.80;63.60
83553;DHT22;73510;50.866;5.420;2024-03-02T04:07:03;8.80;64.00
83553;DHT22;73510;50.866;5.420;2024-03-02T04:09:29;8.80;63.80
83553;DHT22;73510;50.866;5.420;2024-03-02T04:11:55;8.80;63.70
83553;DHT22;73510;50.866;5.420;2024-03-02T04:14:21;8.70;63.70
83553;DHT22;73510;50.866;5.420;2024-03-02T04:16:46;8.70;63.70
83553;DHT22;73510;50.866;5.420;2024-03-02T04:19:12;8.70;63.70
83553;DHT22;73510;50.866;5.420;2024-03-02T04:21:37;8.70;63.70
83553;DHT22;73510;50.866;5.420;2024-03-02T04:24:03;8.70;63.50
83553;DHT22;73510;50.866;5.420;2024-03-02T04:26:29;8.80;63.30
83553;DHT22;73510;50.866;5.420;2024-03-02T04:28:55;8.70;63.50
83553;DHT22;73510;50.866;5.420;2024-03-02T04:31:21;8.80;63.40
83553;DHT22;73510;50.866;5.420;2024-03-02T04:33:46;8.80;63.30
83553;DHT22;73510;50.866;5.420;2024-03-02T04:36:12;8.70;63.50
83553;DHT22;73510;50.866;5.420;2024-03-02T04:38:38;8.70;63.20
83553;DHT22;73510;50.866;5.420;2024-03-02T04:41:05;8.70;63.50
83553;DHT22;73510;50.866;5.420;2024-03-02T04:43:34;8.70;63.30
83553;DHT22;73510;50.866;5.420;2024-03-02T04:46:01;8.60;63.40
83553;DHT22;73510;50.866;5.420;2024-03-02T04:48:27;8.60;63.40
83553;DHT22;73510;50.866;5.420;2024-03-02T04:50:52;8.60;63.20
83553;DHT22;73510;50.866;5.420;2024-03-02T04:53:18;8.60;63.20
83553;DHT22;73510;50.866;5.420;2024-03-02T04:55:44;8.60;63.60
83553;DHT22;73510;50.866;5.420;2024-03-02T04:58:09;8.60;63.50
83553;DHT22;73510;50.866;5.420;2024-03-02T05:00:35;8.50;63.70
83553;DHT22;73510;50.866;5.420;2024-03-02T05:03:02;8.40;63.80
83553;DHT22;73510;50.866;5.420;2024-03-02T05:05:28;8.40;63.90
83553;DHT22;73510;50.866;5.420;2024-03-02T05:07:54;8.40;64.00
83553;DHT22;73510;50.866;5.420;2024-03-02T05:10:20;8.30;64.00
83553;DHT22;73510;50.866;5.420;2024-03-02T05:12:46;8.40;64.20
83553;DHT22;73510;50.866;5.420;2024-03-02T05:15:13;8.40;64.00
83553;DHT22;73510;50.866;5.420;2024-03-02T05:17:40;8.30;63.90
83553;DHT22;73510;50.866;5.420;2024-03-02T05:20:09;8.30;64.00
83553;DHT22;73510;50.866;5.420;2024-03-02T05:22:35;8.30;63.80
83553;DHT22;73510;50.866;5.420;2024-03-02T05:25:02;8.30;64.00
83553;DHT22;73510;50.866;5.420;2024-03-02T05:27:28;8.20;64.10
83553;DHT22;73510;50.866;5.420;2024-03-02T05:29:54;8.20;64.00
83553;DHT22;73510;50.866;5.420;2024-03-02T05:32:20;8.20;64.00
83553;DHT22;73510;50.866;5.420;2024-03-02T05:34:46;8.20;64.10
83553;DHT22;73510;50.866;5.420;2024-03-02T05:37:11;8.20;64.10
83553;DHT22;73510;50.866;5.420;2024-03-02T05:39:37;8.10;64.60
83553;DHT22;73510;50.866;5.420;2024-03-02T05:42:03;8.10;64.30
83553;DHT22;73510;50.866;5.420;2024-03-02T05:44:29;8.10;64.30
83553;DHT22;73510;50.866;5.420;2024-03-02T05:46:56;8.10;64.10
83553;DHT22;73510;50.866;5.420;2024-03-02T05:49:22;8.10;64.20
83553;DHT22;73510;50.866;5.420;2024-03-02T05:51:47;8.10;64.20
83553;DHT22;73510;50.866;5.420;2024-03-02T05:54:13;8.10;64.30
83553;DHT22;73510;50.866;5.420;2024-03-02T05:56:39;8.10;64.20
83553;DHT22;73510;50.866;5.420;2024-03-02T05:59:04;8.10;64.10
83553;DHT22;73510;50.866;5.420;2024-03-02T06:01:42;8.10;64.20
83553;DHT22;73510;50.866;5.420;2024-03-02T06:04:09;8.10;64.20
83553;DHT22;73510;50.866;5.420;2024-03-02T06:06:37;8.10;64.20
83553;DHT22;73510;50.866;5.420;2024-03-02T06:09:03;8.10;64.30
83553;DHT22;73510;50.866;5.420;2024-03-02T06:11:39;8.00;64.20
83553;DHT22;73510;50.866;5.420;2024-03-02T06:14:06;8.00;64.20
83553;DHT22;73510;50.866;5.420;2024-03-02T06:16:32;8.00;64.10
83553;DHT22;73510;50.866;5.420;2024-03-02T06:18:58;8.00;64.10
83553;DHT22;73510;50.866;5.420;2024-03-02T06:21:25;8.00;63.90
83553;DHT22;73510;50.866;5.420;2024-03-02T06:23:50;8.00;63.90
83553;DHT22;73510;50.866;5.420;2024-03-02T06:26:16;8.10;63.90
83553;DHT22;73510;50.866;5.420;2024-03-02T06:28:43;8.10;63.70
83553;DHT22;73510;50.866;5.420;2024-03-02T06:31:08;8.10;63.70
83553;DHT22;73510;50.866;5.420;2024-03-02T06:33:34;8.10;63.70
83553;DHT22;73510;50.866;5.420;2024-03-02T06:36:00;8.10;63.70
83553;DHT22;73510;50.866;5.420;2024-03-02T06:38:26;8.20;63.70
83553;DHT22;73510;50.866;5.420;2024-03-02T06:40:51;8.20;63.70
83553;DHT22;73510;50.866;5.420;2024-03-02T06:43:17;8.20;63.80
83553;DHT22;73510;50.866;5.420;2024-03-02T06:45:43;8.20;63.80
83553;DHT22;73510;50.866;5.420;2024-03-02T06:48:09;8.20;63.90
83553;DHT22;73510;50.866;5.420;2024-03-02T06:50:34;8.30;63.80
83553;DHT22;73510;50.866;5.420;2024-03-02T06:53:00;8.30;63.80
83553;DHT22;73510;50.866;5.420;2024-03-02T06:55:26;8.30;63.80
83553;DHT22;73510;50.866;5.420;2024-03-02T06:57:52;8.30;63.70
83553;DHT22;73510;50.866;5.420;2024-03-02T07:00:18;8.40;63.60
83553;DHT22;73510;50.866;5.420;2024-03-02T07:02:45;8.40;63.50
83553;DHT22;73510;50.866;5.420;2024-03-02T07:05:11;8.60;63.30
83553;DHT22;73510;50.866;5.420;2024-03-02T07:07:38;8.90;62.70
83553;DHT22;73510;50.866;5.420;2024-03-02T07:10:04;9.30;62.10
83553;DHT22;73510;50.866;5.420;2024-03-02T07:12:31;9.70;61.00
83553;DHT22;73510;50.866;5.420;2024-03-02T07:14:57;9.80;60.50
83553;DHT22;73510;50.866;5.420;2024-03-02T07:17:31;9.70;60.70
83553;DHT22;73510;50.866;5.420;2024-03-02T07:19:57;9.40;61.10
83553;DHT22;73510;50.866;5.420;2024-03-02T07:22:23;9.20;61.20
83553;DHT22;73510;50.866;5.420;2024-03-02T07:24:49;9.20;61.50
83553;DHT22;73510;50.866;5.420;2024-03-02T07:27:15;9.10;61.70
83553;DHT22;73510;50.866;5.420;2024-03-02T07:29:41;9.10;61.80
83553;DHT22;73510;50.866;5.420;2024-03-02T07:32:08;9.20;61.80
83553;DHT22;73510;50.866;5.420;2024-03-02T07:34:34;9.20;61.70
83553;DHT22;73510;50.866;5.420;2024-03-02T07:37:00;9.10;61.80
83553;DHT22;73510;50.866;5.420;2024-03-02T07:39:26;9.10;61.90
83553;DHT22;73510;50.866;5.420;2024-03-02T07:41:52;9.10;61.90
83553;DHT22;73510;50.866;5.420;2024-03-02T07:44:18;9.20;61.70
83553;DHT22;73510;50.866;5.420;2024-03-02T07:46:48;9.30;61.60
83553;DHT22;73510;50.866;5.420;2024-03-02T07:49:18;9.40;61.30
83553;DHT22;73510;50.866;5.420;2024-03-02T07:51:44;9.80;60.90
83553;DHT22;73510;50.866;5.420;2024-03-02T07:54:10;11.10;59.20
83553;DHT22;73510;50.866;5.420;2024-03-02T07:56:36;12.40;56.50
83553;DHT22;73510;50.866;5.420;2024-03-02T07:59:02;13.70;54.20
83553;DHT22;73510;50.866;5.420;2024-03-02T08:01:28;14.70;52.60
83553;DHT22;73510;50.866;5.420;2024-03-02T08:03:56;15.20;51.60
83553;DHT22;73510;50.866;5.420;2024-03-02T08:06:27;15.30;51.20
83553;DHT22;73510;50.866;5.420;2024-03-02T08:09:00;15.30;51.20
83553;DHT22;73510;50.866;5.420;2024-03-02T08:11:27;15.90;50.70
83553;DHT22;73510;50.866;5.420;2024-03-02T08:13:53;16.60;49.50
83553;DHT22;73510;50.866;5.420;2024-03-02T08:16:21;17.00;49.10
83553;DHT22;73510;50.866;5.420;2024-03-02T08:18:48;17.60;47.90
83553;DHT22;73510;50.866;5.420;2024-03-02T08:21:15;18.00;47.70
83553;DHT22;73510;50.866;5.420;2024-03-02T08:23:41;18.20;47.20
83553;DHT22;73510;50.866;5.420;2024-03-02T08:26:08;18.30;46.80
83553;DHT22;73510;50.866;5.420;2024-03-02T08:28:34;18.40;46.80
83553;DHT22;73510;50.866;5.420;2024-03-02T08:31:00;18.40;46.60
83553;DHT22;73510;50.866;5.420;2024-03-02T08:33:26;18.40;46.80
83553;DHT22;73510;50.866;5.420;2024-03-02T08:35:52;18.40;46.50
83553;DHT22;73510;50.866;5.420;2024-03-02T08:38:18;18.50;46.60
83553;DHT22;73510;50.866;5.420;2024-03-02T08:40:44;18.80;46.10
83553;DHT22;73510;50.866;5.420;2024-03-02T08:43:09;19.20;45.60
83553;DHT22;73510;50.866;5.420;2024-03-02T08:45:36;19.40;45.10
83553;DHT22;73510;50.866;5.420;2024-03-02T08:48:01;19.40;45.20
83553;DHT22;73510;50.866;5.420;2024-03-02T08:50:27;18.90;44.90
83553;DHT22;73510;50.866;5.420;2024-03-02T08:52:53;18.10;46.10
83553;DHT22;73510;50.866;5.420;2024-03-02T08:55:18;17.50;46.80
83553;DHT22;73510;50.866;5.420;2024-03-02T08:57:44;17.00;47.40
83553;DHT22;73510;50.866;5.420;2024-03-02T09:00:10;16.60;48.00
83553;DHT22;73510;50.866;5.420;2024-03-02T09:02:36;16.40;48.40
83553;DHT22;73510;50.866;5.420;2024-03-02T09:05:02;16.30;48.90
83553;DHT22;73510;50.866;5.420;2024-03-02T09:07:28;16.40;48.00
83553;DHT22;73510;50.866;5.420;2024-03-02T09:09:54;16.80;48.10
83553;DHT22;73510;50.866;5.420;2024-03-02T09:12:19;17.30;47.40
83553;DHT22;73510;50.866;5.420;2024-03-02T09:14:45;17.70;47.00
83553;DHT22;73510;50.866;5.420;2024-03-02T09:17:12;18.00;46.90
83553;DHT22;73510;50.866;5.420;2024-03-02T09:19:38;18.30;46.10
83553;DHT22;73510;50.866;5.420;2024-03-02T09:22:04;18.60;45.70
83553;DHT22;73510;50.866;5.420;2024-03-02T09:24:31;18.70;45.50
83553;DHT22;73510;50.866;5.420;2024-03-02T09:26:59;18.70;45.30
83553;DHT22;73510;50.866;5.420;2024-03-02T09:29:25;18.60;45.40
83553;DHT22;73510;50.866;5.420;2024-03-02T09:31:50;18.90;45.30
83553;DHT22;73510;50.866;5.420;2024-03-02T09:34:17;19.30;45.00
83553;DHT22;73510;50.866;5.420;2024-03-02T09:36:43;19.70;44.00
83553;DHT22;73510;50.866;5.420;2024-03-02T09:39:09;20.00;44.00
83553;DHT22;73510;50.866;5.420;2024-03-02T09:41:36;20.00;43.90
83553;DHT22;73510;50.866;5.420;2024-03-02T09:44:03;20.00;43.70
83553;DHT22;73510;50.866;5.420;2024-03-02T09:46:28;20.30;43.70
83553;DHT22;73510;50.866;5.420;2024-03-02T09:48:55;20.60;43.90
83553;DHT22;73510;50.866;5.420;2024-03-02T09:51:20;20.80;43.50
83553;DHT22;73510;50.866;5.420;2024-03-02T09:53:47;20.90;43.30
83553;DHT22;73510;50.866;5.420;2024-03-02T09:56:13;21.00;44.20
83553;DHT22;73510;50.866;5.420;2024-03-02T09:58:39;20.90;43.60
83553;DHT22;73510;50.866;5.420;2024-03-02T10:01:08;20.40;43.80
83553;DHT22;73510;50.866;5.420;2024-03-02T10:03:36;19.90;44.60
83553;DHT22;73510;50.866;5.420;2024-03-02T10:06:22;19.30;45.00
83553;DHT22;73510;50.866;5.420;2024-03-02T10:08:48;18.70;44.80
83553;DHT22;73510;50.866;5.420;2024-03-02T10:11:32;18.30;45.40
83553;DHT22;73510;50.866;5.420;2024-03-02T10:14:09;18.00;45.90
83553;DHT22;73510;50.866;5.420;2024-03-02T10:16:39;17.80;45.50
83553;DHT22;73510;50.866;5.420;2024-03-02T10:19:24;17.50;46.30
83553;DHT22;73510;50.866;5.420;2024-03-02T10:21:53;17.20;46.70
83553;DHT22;73510;50.866;5.420;2024-03-02T10:24:21;17.20;46.70
83553;DHT22;73510;50.866;5.420;2024-03-02T10:26:48;17.20;47.00
83553;DHT22;73510;50.866;5.420;2024-03-02T10:29:14;17.10;46.90
83553;DHT22;73510;50.866;5.420;2024-03-02T10:31:42;16.90;47.10
83553;DHT22;73510;50.866;5.420;2024-03-02T10:34:09;16.60;47.50
83553;DHT22;73510;50.866;5.420;2024-03-02T10:36:36;16.50;47.80
83553;DHT22;73510;50.866;5.420;2024-03-02T10:39:06;16.50;48.00
83553;DHT22;73510;50.866;5.420;2024-03-02T10:41:33;16.70;48.10
83553;DHT22;73510;50.866;5.420;2024-03-02T10:44:05;16.90;47.90
83553;DHT22;73510;50.866;5.420;2024-03-02T10:46:33;16.90;47.30
83553;DHT22;73510;50.866;5.420;2024-03-02T10:49:00;16.90;47.30
83553;DHT22;73510;50.866;5.420;2024-03-02T10:51:30;16.90;47.10
83553;DHT22;73510;50.866;5.420;2024-03-02T10:53:58;16.70;46.70
83553;DHT22;73510;50.866;5.420;2024-03-02T10:56:31;16.70;47.10
83553;DHT22;73510;50.866;5.420;2024-03-02T11:01:48;16.40;47.70
83553;DHT22;73510;50.866;5.420;2024-03-02T11:04:16;16.10;47.30
83553;DHT22;73510;50.866;5.420;2024-03-02T11:06:49;15.80;48.00
83553;DHT22;73510;50.866;5.420;2024-03-02T11:09:19;15.60;48.20
83553;DHT22;73510;50.866;5.420;2024-03-02T11:12:12;15.50;48.90
83553;DHT22;73510;50.866;5.420;2024-03-02T11:14:40;15.30;49.10
83553;DHT22;73510;50.866;5.420;2024-03-02T11:17:06;15.20;48.80
83553;DHT22;73510;50.866;5.420;2024-03-02T11:19:33;15.00;49.20
83553;DHT22;73510;50.866;5.420;2024-03-02T11:21:59;15.00;49.10
83553;DHT22;73510;50.866;5.420;2024-03-02T11:27:02;14.90;49.90
83553;DHT22;73510;50.866;5.420;2024-03-02T11:32:05;14.90;50.00
83553;DHT22;73510;50.866;5.420;2024-03-02T11:34:33;14.90;49.90
83553;DHT22;73510;50.866;5.420;2024-03-02T11:37:02;14.90;49.70
83553;DHT22;73510;50.866;5.420;2024-03-02T11:39:29;14.90;49.80
83553;DHT22;73510;50.866;5.420;2024-03-02T11:41:55;14.90;49.50
83553;DHT22;73510;50.866;5.420;2024-03-02T11:44:21;15.00;49.40
83553;DHT22;73510;50.866;5.420;2024-03-02T11:47:06;14.90;49.10
83553;DHT22;73510;50.866;5.420;2024-03-02T11:49:43;14.90;49.60
83553;DHT22;73510;50.866;5.420;2024-03-02T11:52:11;14.80;49.70
83553;DHT22;73510;50.866;5.420;2024-03-02T11:54:38;14.90;49.70
83553;DHT22;73510;50.866;5.420;2024-03-02T11:57:06;14.90;49.50
83553;DHT22;73510;50.866;5.420;2024-03-02T11:59:32;15.00;49.30
83553;DHT22;73510;50.866;5.420;2024-03-02T12:01:58;15.00;50.00
83553;DHT22;73510;50.866;5.420;2024-03-02T12:04:25;15.00;49.50
83553;DHT22;73510;50.866;5.420;2024-03-02T12:06:59;15.00;49.20
83553;DHT22;73510;50.866;5.420;2024-03-02T12:09:29;15.10;49.60
83553;DHT22;73510;50.866;5.420;2024-03-02T12:12:04;15.10;50.20
83553;DHT22;73510;50.866;5.420;2024-03-02T12:14:33;15.20;49.30
83553;DHT22;73510;50.866;5.420;2024-03-02T12:16:59;15.20;49.80
83553;DHT22;73510;50.866;5.420;2024-03-02T12:19:26;15.30;50.00
83553;DHT22;73510;50.866;5.420;2024-03-02T12:21:53;15.30;50.20
83553;DHT22;73510;50.866;5.420;2024-03-02T12:24:21;15.30;50.30
83553;DHT22;73510;50.866;5.420;2024-03-02T12:26:47;15.40;49.80
83553;DHT22;73510;50.866;5.420;2024-03-02T12:29:14;15.40;50.10
83553;DHT22;73510;50.866;5.420;2024-03-02T12:31:41;15.50;50.10
83553;DHT22;73510;50.866;5.420;2024-03-02T12:34:08;15.60;49.80
83553;DHT22;73510;50.866;5.420;2024-03-02T12:36:38;15.60;50.30
83553;DHT22;73510;50.866;5.420;2024-03-02T12:39:04;15.60;49.50
83553;DHT22;73510;50.866;5.420;2024-03-02T12:41:30;15.50;49.30
83553;DHT22;73510;50.866;5.420;2024-03-02T12:43:55;15.50;49.60
83553;DHT22;73510;50.866;5.420;2024-03-02T12:46:22;15.50;50.10
83553;DHT22;73510;50.866;5.420;2024-03-02T12:48:47;15.50;49.70
83553;DHT22;73510;50.866;5.420;2024-03-02T12:51:13;15.40;49.60
83553;DHT22;73510;50.866;5.420;2024-03-02T12:53:40;15.40;49.90
83553;DHT22;73510;50.866;5.420;2024-03-02T12:56:06;15.40;50.00
83553;DHT22;73510;50.866;5.420;2024-03-02T12:58:39;15.50;50.00
83553;DHT22;73510;50.866;5.420;2024-03-02T13:01:07;15.60;50.00
83553;DHT22;73510;50.866;5.420;2024-03-02T13:03:38;15.70;49.40
83553;DHT22;73510;50.866;5.420;2024-03-02T13:06:05;15.80;49.40
83553;DHT22;73510;50.866;5.420;2024-03-02T13:08:35;15.80;49.90
83553;DHT22;73510;50.866;5.420;2024-03-02T13:11:02;15.80;49.60
83553;DHT22;73510;50.866;5.420;2024-03-02T13:13:31;15.80;49.80
83553;DHT22;73510;50.866;5.420;2024-03-02T13:15:56;15.80;50.20
83553;DHT22;73510;50.866;5.420;2024-03-02T13:18:22;15.80;50.00
83553;DHT22;73510;50.866;5.420;2024-03-02T13:20:48;15.80;49.70
83553;DHT22;73510;50.866;5.420;2024-03-02T13:23:14;15.80;49.70
83553;DHT22;73510;50.866;5.420;2024-03-02T13:25:40;16.00;50.00
83553;DHT22;73510;50.866;5.420;2024-03-02T13:28:06;16.00;50.30
83553;DHT22;73510;50.866;5.420;2024-03-02T13:30:32;16.10;50.70
83553;DHT22;73510;50.866;5.420;2024-03-02T13:32:58;16.20;49.90
83553;DHT22;73510;50.866;5.420;2024-03-02T13:35:24;16.20;50.40
83553;DHT22;73510;50.866;5.420;2024-03-02T13:37:50;16.20;50.10
83553;DHT22;73510;50.866;5.420;2024-03-02T13:40:16;16.20;50.10
83553;DHT22;73510;50.866;5.420;2024-03-02T13:42:43;16.10;50.00
83553;DHT22;73510;50.866;5.420;2024-03-02T13:45:09;16.20;50.00
83553;DHT22;73510;50.866;5.420;2024-03-02T13:47:35;16.20;49.60
83553;DHT22;73510;50.866;5.420;2024-03-02T13:50:00;16.10;49.70
83553;DHT22;73510;50.866;5.420;2024-03-02T13:52:28;16.10;49.80
83553;DHT22;73510;50.866;5.420;2024-03-02T13:54:53;16.10;50.70
83553;DHT22;73510;50.866;5.420;2024-03-02T13:57:19;16.10;50.20
83553;DHT22;73510;50.866;5.420;2024-03-02T13:59:45;16.10;49.70
83553;DHT22;73510;50.866;5.420;2024-03-02T14:02:11;16.00;50.10
83553;DHT22;73510;50.866;5.420;2024-03-02T14:04:37;16.00;50.10
83553;DHT22;73510;50.866;5.420;2024-03-02T14:07:04;16.00;50.30
83553;DHT22;73510;50.866;5.420;2024-03-02T14:09:32;16.00;51.00
83553;DHT22;73510;50.866;5.420;2024-03-02T14:11:58;16.00;50.50
83553;DHT22;73510;50.866;5.420;2024-03-02T14:14:26;15.80;50.70
83553;DHT22;73510;50.866;5.420;2024-03-02T14:16:53;15.80;51.10
83553;DHT22;73510;50.866;5.420;2024-03-02T14:19:19;15.60;51.20
83553;DHT22;73510;50.866;5.420;2024-03-02T14:21:46;15.60;51.50
83553;DHT22;73510;50.866;5.420;2024-03-02T14:24:13;15.60;51.70
83553;DHT22;73510;50.866;5.420;2024-03-02T14:26:39;15.60;51.50
83553;DHT22;73510;50.866;5.420;2024-03-02T14:29:06;15.60;51.60
83553;DHT22;73510;50.866;5.420;2024-03-02T14:31:32;15.50;51.40
83553;DHT22;73510;50.866;5.420;2024-03-02T14:33:58;15.50;51.10
83553;DHT22;73510;50.866;5.420;2024-03-02T14:36:24;15.60;51.50
83553;DHT22;73510;50.866;5.420;2024-03-02T14:38:51;15.60;51.60
83553;DHT22;73510;50.866;5.420;2024-03-02T14:41:17;15.50;52.00
83553;DHT22;73510;50.866;5.420;2024-03-02T14:43:42;15.50;51.20
83553;DHT22;73510;50.866;5.420;2024-03-02T14:46:09;15.50;51.20
83553;DHT22;73510;50.866;5.420;2024-03-02T14:48:35;15.40;50.90
83553;DHT22;73510;50.866;5.420;2024-03-02T14:51:02;15.40;51.10
83553;DHT22;73510;50.866;5.420;2024-03-02T14:53:27;15.40;51.70
83553;DHT22;73510;50.866;5.420;2024-03-02T14:55:54;15.50;51.20
83553;DHT22;73510;50.866;5.420;2024-03-02T14:58:19;15.50;51.10
83553;DHT22;73510;50.866;5.420;2024-03-02T15:00:45;15.50;51.70
83553;DHT22;73510;50.866;5.420;2024-03-02T15:03:11;15.50;51.50
83553;DHT22;73510;50.866;5.420;2024-03-02T15:05:37;15.50;51.50
83553;DHT22;73510;50.866;5.420;2024-03-02T15:08:04;15.50;51.70
83553;DHT22;73510;50.866;5.420;2024-03-02T15:10:31;15.50;51.80
83553;DHT22;73510;50.866;5.420;2024-03-02T15:12:57;15.40;51.80
83553;DHT22;73510;50.866;5.420;2024-03-02T15:15:23;15.40;51.50
83553;DHT22;73510;50.866;5.420;2024-03-02T15:17:49;15.40;51.80
83553;DHT22;73510;50.866;5.420;2024-03-02T15:20:16;15.30;51.70
83553;DHT22;73510;50.866;5.420;2024-03-02T15:22:41;15.30;51.90
83553;DHT22;73510;50.866;5.420;2024-03-02T15:25:07;15.20;52.00
83553;DHT22;73510;50.866;5.420;2024-03-02T15:27:33;15.20;52.10
83553;DHT22;73510;50.866;5.420;2024-03-02T15:29:59;15.10;52.30
83553;DHT22;73510;50.866;5.420;2024-03-02T15:32:24;15.00;52.40
83553;DHT22;73510;50.866;5.420;2024-03-02T15:34:52;15.00;52.40
83553;DHT22;73510;50.866;5.420;2024-03-02T15:37:18;15.00;52.50
83553;DHT22;73510;50.866;5.420;2024-03-02T15:39:44;15.00;52.80
83553;DHT22;73510;50.866;5.420;2024-03-02T15:42:10;15.00;52.80
83553;DHT22;73510;50.866;5.420;2024-03-02T15:44:35;14.90;52.80
83553;DHT22;73510;50.866;5.420;2024-03-02T15:47:01;14.90;52.70